createdAt,value
2022-12-11T00:01:14.862Z,46.27
2022-12-11T00:03:41.951Z,38.57
2022-12-11T00:06:10.304Z,35.70
2022-12-11T00:08:37.326Z,42.67
2022-12-11T00:11:04.167Z,41.00
2022-12-11T00:13:30.837Z,37.80
2022-12-11T00:15:59.351Z,42.30
2022-12-11T00:18:26.067Z,48.10
2022-12-11T00:20:53.011Z,41.50
2022-12-11T00:23:19.822Z,40.43
2022-12-11T00:25:47.646Z,35.87
2022-12-11T00:28:16.483Z,36.97
2022-12-11T00:30:43.116Z,37.30
2022-12-11T00:33:11.871Z,42.73
2022-12-11T00:35:39.179Z,36.07
2022-12-11T00:38:05.729Z,35.53
2022-12-11T00:40:33.864Z,39.20
2022-12-11T00:43:00.758Z,33.73
2022-12-11T00:45:27.420Z,34.73
2022-12-11T00:47:54.017Z,34.53
2022-12-11T00:50:21.266Z,43.60
2022-12-11T00:52:47.898Z,34.47
2022-12-11T00:55:14.532Z,37.87
2022-12-11T00:57:41.093Z,38.00
2022-12-11T01:00:08.831Z,41.53
2022-12-11T01:02:35.491Z,38.43
2022-12-11T01:05:02.099Z,38.03
2022-12-11T01:07:29.364Z,41.80
2022-12-11T01:10:14.155Z,36.67
2022-12-11T01:12:40.721Z,43.43
2022-12-11T01:15:08.286Z,36.53
2022-12-11T01:17:35.124Z,35.20
2022-12-11T01:20:03.428Z,36.33
2022-12-11T01:22:30.940Z,37.57
2022-12-11T01:24:58.461Z,34.87
2022-12-11T01:27:25.270Z,43.30
2022-12-11T01:29:51.850Z,33.50
2022-12-11T01:32:18.621Z,40.90
2022-12-11T01:34:45.228Z,38.77
2022-12-11T01:37:11.900Z,32.37
2022-12-11T01:39:39.301Z,45.67
2022-12-11T01:42:09.631Z,37.23
2022-12-11T01:45:15.995Z,39.50
2022-12-11T01:47:43.776Z,46.40
2022-12-11T01:50:10.932Z,33.33
2022-12-11T01:52:37.714Z,41.30
2022-12-11T01:55:06.750Z,40.73
2022-12-11T01:57:33.522Z,44.00
2022-12-11T02:00:00.130Z,41.70
2022-12-11T02:02:29.696Z,40.57
2022-12-11T02:04:56.778Z,40.93
2022-12-11T02:07:23.738Z,40.87
2022-12-11T02:09:50.885Z,39.50
2022-12-11T02:12:24.442Z,40.90
2022-12-11T02:14:59.522Z,37.50
2022-12-11T02:17:33.870Z,34.10
2022-12-11T02:20:07.437Z,45.33
2022-12-11T02:23:12.289Z,36.90
2022-12-11T02:25:48.074Z,37.60
2022-12-11T02:28:19.399Z,39.73
2022-12-11T02:30:49.964Z,36.70
2022-12-11T02:33:19.968Z,31.63
2022-12-11T02:35:48.392Z,40.67
2022-12-11T02:38:18.843Z,44.17
2022-12-11T02:40:48.261Z,43.47
2022-12-11T02:43:18.174Z,40.30
2022-12-11T02:45:46.636Z,42.33
2022-12-11T02:48:15.051Z,36.80
2022-12-11T02:50:45.542Z,44.03
2022-12-11T02:53:16.253Z,38.90
2022-12-11T02:55:43.711Z,46.83
2022-12-11T02:58:15.866Z,40.57
2022-12-11T03:00:44.628Z,38.27
2022-12-11T03:03:11.651Z,37.60
2022-12-11T03:05:38.844Z,41.97
2022-12-11T03:08:05.947Z,39.63
2022-12-11T03:10:32.654Z,41.13
2022-12-11T03:13:00.862Z,40.20
2022-12-11T03:15:38.758Z,36.07
2022-12-11T03:18:11.441Z,47.00
2022-12-11T03:20:41.368Z,39.80
2022-12-11T03:23:17.821Z,43.70
2022-12-11T03:25:49.448Z,50.30
2022-12-11T03:28:19.266Z,43.67
2022-12-11T03:30:48.914Z,45.33
2022-12-11T03:33:23.361Z,42.13
2022-12-11T03:35:53.572Z,58.87
2022-12-11T03:38:25.671Z,42.80
2022-12-11T03:40:55.945Z,45.90
2022-12-11T03:43:22.738Z,52.13
2022-12-11T03:45:51.823Z,44.50
2022-12-11T03:48:20.829Z,48.90
2022-12-11T03:50:49.016Z,46.50
2022-12-11T03:53:16.462Z,46.17
2022-12-11T03:55:43.354Z,40.60
2022-12-11T03:58:10.016Z,54.40
2022-12-11T04:00:37.385Z,51.77
2022-12-11T04:03:13.967Z,48.40
2022-12-11T04:05:42.498Z,33.10
2022-12-11T04:08:09.535Z,39.33
2022-12-11T04:10:36.148Z,36.47
2022-12-11T04:13:03.001Z,44.63
2022-12-11T04:15:29.320Z,47.27
2022-12-11T04:18:14.181Z,45.10
2022-12-11T04:20:59.409Z,43.43
2022-12-11T04:23:43.973Z,47.03
2022-12-11T04:26:12.519Z,45.10
2022-12-11T04:28:39.758Z,51.03
2022-12-11T04:31:10.351Z,40.53
2022-12-11T04:33:37.032Z,46.07
2022-12-11T04:36:04.971Z,53.50
2022-12-11T04:38:31.951Z,44.40
2022-12-11T04:40:59.307Z,42.60
2022-12-11T04:43:27.013Z,45.63
2022-12-11T04:46:01.313Z,37.17
2022-12-11T04:48:28.357Z,41.50
2022-12-11T04:50:54.965Z,41.30
2022-12-11T04:53:22.372Z,45.33
2022-12-11T04:55:48.944Z,39.47
2022-12-11T04:58:15.555Z,46.87
2022-12-11T05:00:42.331Z,46.80
2022-12-11T05:03:09.244Z,39.60
2022-12-11T05:05:35.917Z,53.00
2022-12-11T05:08:02.634Z,40.13
2022-12-11T05:10:29.980Z,48.20
2022-12-11T05:12:56.640Z,46.40
2022-12-11T05:15:23.416Z,49.57
2022-12-11T05:17:50.008Z,52.17
2022-12-11T05:20:16.770Z,45.03
2022-12-11T05:22:43.376Z,52.73
2022-12-11T05:25:10.344Z,44.07
2022-12-11T05:27:37.941Z,43.17
2022-12-11T05:30:05.657Z,41.93
2022-12-11T05:32:32.278Z,43.87
2022-12-11T05:34:58.833Z,42.47
2022-12-11T05:37:25.458Z,43.03
2022-12-11T05:39:52.115Z,40.67
2022-12-11T05:42:20.869Z,49.73
2022-12-11T05:44:51.298Z,43.00
2022-12-11T05:47:19.578Z,49.87
2022-12-11T05:49:47.048Z,40.93
2022-12-11T05:52:13.700Z,41.00
2022-12-11T05:54:40.449Z,39.77
2022-12-11T05:57:07.140Z,45.43
2022-12-11T05:59:33.768Z,44.00
2022-12-11T06:02:01.126Z,42.87
2022-12-11T06:04:27.898Z,45.17
2022-12-11T06:06:54.760Z,37.63
2022-12-11T06:09:21.338Z,38.63
2022-12-11T06:11:47.961Z,50.77
2022-12-11T06:14:14.531Z,37.10
2022-12-11T06:16:41.153Z,40.27
2022-12-11T06:19:14.449Z,41.43
2022-12-11T06:21:41.379Z,29.33
2022-12-11T06:24:10.098Z,33.63
2022-12-11T06:26:36.744Z,35.40
2022-12-11T06:29:07.552Z,35.93
2022-12-11T06:31:35.727Z,35.47
2022-12-11T06:34:02.388Z,28.23
2022-12-11T06:36:29.639Z,43.67
2022-12-11T06:38:57.015Z,38.47
2022-12-11T06:41:23.615Z,38.20
2022-12-11T06:43:50.389Z,35.37
2022-12-11T06:46:18.981Z,35.73
2022-12-11T06:48:46.546Z,45.67
2022-12-11T06:51:15.300Z,34.70
2022-12-11T06:53:43.341Z,28.37
2022-12-11T06:56:11.544Z,34.00
2022-12-11T06:58:39.277Z,39.27
2022-12-11T07:01:14.866Z,37.60
2022-12-11T07:03:41.546Z,39.23
2022-12-11T07:06:08.301Z,32.67
2022-12-11T07:08:34.925Z,32.03
2022-12-11T07:11:06.516Z,30.80
2022-12-11T07:13:33.464Z,34.63
2022-12-11T07:16:01.114Z,30.27
2022-12-11T07:18:28.282Z,42.87
2022-12-11T07:20:57.068Z,39.57
2022-12-11T07:23:23.841Z,34.93
2022-12-11T07:25:50.445Z,35.83
2022-12-11T07:28:17.809Z,36.33
2022-12-11T07:30:44.397Z,35.20
2022-12-11T07:33:11.002Z,36.27
2022-12-11T07:35:38.044Z,33.50
2022-12-11T07:38:04.911Z,36.23
2022-12-11T07:40:33.032Z,34.30
2022-12-11T07:42:59.719Z,28.80
2022-12-11T07:45:29.135Z,33.73
2022-12-11T07:47:55.733Z,28.83
2022-12-11T07:50:22.725Z,32.23
2022-12-11T07:52:49.455Z,32.47
2022-12-11T07:55:16.298Z,28.90
2022-12-11T07:57:42.840Z,29.60
2022-12-11T08:00:11.022Z,32.00
2022-12-11T08:02:38.379Z,28.33
2022-12-11T08:05:05.938Z,30.87
2022-12-11T08:07:34.652Z,28.70
2022-12-11T08:10:01.406Z,34.03
2022-12-11T08:12:28.097Z,32.00
2022-12-11T08:14:54.786Z,30.97
2022-12-11T08:17:27.398Z,24.17
2022-12-11T08:19:57.058Z,34.30
2022-12-11T08:22:24.292Z,25.83
2022-12-11T08:24:59.523Z,29.90
2022-12-11T08:27:26.177Z,28.90
2022-12-11T08:29:52.801Z,29.10
2022-12-11T08:32:19.400Z,33.43
2022-12-11T08:34:46.046Z,27.53
2022-12-11T08:37:13.517Z,28.27
2022-12-11T08:39:40.235Z,30.30
2022-12-11T08:42:16.392Z,35.23
2022-12-11T08:44:44.133Z,29.90
2022-12-11T08:47:11.654Z,32.47
2022-12-11T08:49:38.967Z,29.40
2022-12-11T08:52:07.192Z,31.13
2022-12-11T08:54:36.554Z,29.07
2022-12-11T08:57:07.819Z,26.07
2022-12-11T08:59:35.512Z,31.73
2022-12-11T09:02:02.408Z,28.63
2022-12-11T09:04:29.868Z,26.97
2022-12-11T09:06:57.230Z,31.83
2022-12-11T09:09:24.737Z,24.80
2022-12-11T09:11:53.347Z,27.33
2022-12-11T09:14:20.770Z,26.87
2022-12-11T09:16:47.454Z,24.40
2022-12-11T09:19:14.897Z,18.97
2022-12-11T09:21:42.749Z,26.30
2022-12-11T09:24:10.647Z,27.87
2022-12-11T09:26:38.420Z,27.60
2022-12-11T09:29:06.385Z,27.90
2022-12-11T09:31:35.762Z,28.57
2022-12-11T09:34:04.700Z,26.83
2022-12-11T09:36:31.748Z,36.10
2022-12-11T09:39:00.789Z,28.50
2022-12-11T09:41:35.902Z,26.63
2022-12-11T09:44:14.553Z,30.90
2022-12-11T09:46:42.152Z,26.70
2022-12-11T09:49:17.272Z,28.57
2022-12-11T09:51:47.704Z,31.80
2022-12-11T09:54:15.162Z,33.57
2022-12-11T09:56:46.563Z,27.83
2022-12-11T09:59:23.549Z,31.93
2022-12-11T10:01:54.878Z,30.47
2022-12-11T10:04:39.952Z,29.97
2022-12-11T10:07:15.671Z,28.90
2022-12-11T10:09:50.045Z,34.73
2022-12-11T10:12:28.714Z,34.50
2022-12-11T10:15:18.641Z,37.63
2022-12-11T10:17:46.236Z,39.03
2022-12-11T10:20:22.484Z,33.30
2022-12-11T10:22:51.607Z,29.47
2022-12-11T10:25:22.345Z,33.10
2022-12-11T10:27:50.187Z,33.80
2022-12-11T10:30:19.929Z,26.53
2022-12-11T10:32:58.469Z,34.83
2022-12-11T10:35:32.588Z,32.20
2022-12-11T10:38:11.256Z,28.83
2022-12-11T10:40:40.179Z,34.67
2022-12-11T10:43:07.019Z,40.07
2022-12-11T10:45:34.468Z,35.17
2022-12-11T10:48:05.449Z,38.60
2022-12-11T10:50:32.961Z,36.50
2022-12-11T10:53:00.298Z,32.43
2022-12-11T10:55:30.606Z,26.07
2022-12-11T10:58:00.432Z,34.97
2022-12-11T11:00:33.034Z,68.93
2022-12-11T11:03:01.601Z,32.43
2022-12-11T11:05:31.717Z,32.97
2022-12-11T11:08:04.639Z,26.00
2022-12-11T11:10:31.453Z,30.57
2022-12-11T11:13:01.473Z,28.97
2022-12-11T11:15:30.148Z,30.23
2022-12-11T11:18:02.462Z,35.00
2022-12-11T11:20:33.707Z,28.87
2022-12-11T11:23:03.497Z,37.80
2022-12-11T11:25:32.405Z,33.53
2022-12-11T11:28:02.700Z,31.90
2022-12-11T11:30:31.806Z,31.80
2022-12-11T11:33:02.292Z,26.80
2022-12-11T11:35:31.304Z,35.13
2022-12-11T11:38:05.976Z,33.30
2022-12-11T11:40:36.807Z,29.27
2022-12-11T11:43:15.430Z,40.80
2022-12-11T11:45:46.791Z,32.53
2022-12-11T11:48:30.869Z,28.93
2022-12-11T11:50:58.724Z,29.33
2022-12-11T11:53:32.241Z,33.23
2022-12-11T11:56:05.766Z,32.33
2022-12-11T11:58:39.369Z,32.60
2022-12-11T12:01:13.630Z,37.93
2022-12-11T12:03:40.398Z,33.23
2022-12-11T12:06:15.869Z,33.63
2022-12-11T12:08:51.159Z,35.73
2022-12-11T12:11:27.548Z,31.30
2022-12-11T12:14:17.658Z,36.33
2022-12-11T12:17:01.274Z,31.67
2022-12-11T12:19:42.684Z,32.77
2022-12-11T12:22:27.359Z,35.87
2022-12-11T12:25:03.111Z,35.87
2022-12-11T12:30:23.243Z,28.63
2022-12-11T12:33:01.639Z,39.83
2022-12-11T12:35:35.356Z,29.23
2022-12-11T12:38:10.321Z,26.23
2022-12-11T12:40:45.173Z,28.87
2022-12-11T12:43:36.422Z,31.50
2022-12-11T12:46:11.209Z,24.50
2022-12-11T12:48:38.093Z,31.43
2022-12-11T12:51:05.925Z,45.93
2022-12-11T12:53:36.313Z,38.83
2022-12-11T12:56:04.912Z,76.13
2022-12-11T12:58:43.237Z,56.13
2022-12-11T13:01:16.478Z,34.17
2022-12-11T13:03:53.712Z,31.37
2022-12-11T13:06:33.614Z,31.17
2022-12-11T13:09:14.986Z,29.97
2022-12-11T13:11:41.991Z,34.10
2022-12-11T13:14:26.407Z,34.07
2022-12-11T13:17:03.868Z,31.77
2022-12-11T13:19:32.141Z,31.67
2022-12-11T13:22:03.442Z,30.27
2022-12-11T13:24:32.515Z,28.83
2022-12-11T13:27:09.498Z,32.33
2022-12-11T13:29:38.603Z,37.47
2022-12-11T13:32:23.016Z,33.27
2022-12-11T13:34:55.072Z,28.60
2022-12-11T13:37:27.133Z,34.47
2022-12-11T13:39:55.521Z,31.70
2022-12-11T13:42:27.793Z,31.80
2022-12-11T13:44:54.604Z,33.43
2022-12-11T13:47:21.616Z,34.73
2022-12-11T13:49:52.954Z,40.33
2022-12-11T13:52:25.057Z,37.33
2022-12-11T13:54:53.847Z,35.93
2022-12-11T13:57:25.005Z,35.63
2022-12-11T13:59:53.724Z,32.97
2022-12-11T14:02:25.250Z,34.70
2022-12-11T14:04:55.406Z,36.03
2022-12-11T14:07:26.617Z,33.70
2022-12-11T14:09:58.903Z,38.03
2022-12-11T14:12:28.407Z,33.63
2022-12-11T14:14:57.505Z,25.43
2022-12-11T14:17:25.906Z,43.47
2022-12-11T14:19:54.318Z,34.80
2022-12-11T14:22:22.837Z,35.17
2022-12-11T14:24:50.856Z,34.57
2022-12-11T14:27:18.342Z,43.60
2022-12-11T14:29:46.270Z,34.47
2022-12-11T14:32:19.515Z,45.53
2022-12-11T14:34:49.358Z,38.27
2022-12-11T14:37:17.729Z,32.07
2022-12-11T14:39:47.259Z,39.20
2022-12-11T14:42:18.060Z,37.20
2022-12-11T14:44:50.274Z,33.53
2022-12-11T14:47:20.535Z,38.70
2022-12-11T14:49:52.869Z,36.33
2022-12-11T14:52:23.441Z,39.20
2022-12-11T14:54:54.245Z,39.37
2022-12-11T14:57:26.338Z,38.67
2022-12-11T14:59:55.936Z,45.47
2022-12-11T15:02:27.010Z,56.33
2022-12-11T15:05:14.001Z,43.97
2022-12-11T15:07:42.859Z,42.67
2022-12-11T15:10:26.592Z,35.43
2022-12-11T15:12:54.132Z,43.77
2022-12-11T15:15:21.652Z,43.93
2022-12-11T15:17:52.912Z,38.10
2022-12-11T15:20:27.883Z,38.13
2022-12-11T15:22:57.417Z,42.70
2022-12-11T15:25:26.352Z,38.13
2022-12-11T15:27:54.853Z,41.83
2022-12-11T15:30:35.136Z,39.80
2022-12-11T15:33:21.351Z,51.40
2022-12-11T15:36:00.175Z,37.20
2022-12-11T15:38:34.610Z,38.23
2022-12-11T15:41:02.082Z,37.67
2022-12-11T15:43:31.428Z,45.00
2022-12-11T15:45:58.713Z,39.93
2022-12-11T15:48:25.510Z,36.13
2022-12-11T15:50:52.105Z,44.60
2022-12-11T15:53:19.005Z,39.93
2022-12-11T15:55:48.921Z,37.97
2022-12-11T15:58:20.115Z,41.37
2022-12-11T16:01:22.624Z,37.23
2022-12-11T16:07:37.248Z,39.07
2022-12-11T16:10:04.764Z,41.37
2022-12-11T16:12:31.713Z,41.40
2022-12-11T16:14:58.618Z,36.43
2022-12-11T16:17:25.259Z,44.83
2022-12-11T16:19:53.836Z,43.87
2022-12-11T16:22:23.326Z,42.03
2022-12-11T16:24:54.371Z,43.67
2022-12-11T16:27:23.234Z,42.57
2022-12-11T16:29:50.602Z,40.53
2022-12-11T16:32:20.491Z,40.53
2022-12-11T16:34:47.222Z,38.10
2022-12-11T16:37:16.871Z,32.23
2022-12-11T16:39:45.212Z,33.20
2022-12-11T16:42:12.498Z,39.30
2022-12-11T16:44:43.864Z,40.60
2022-12-11T16:47:10.847Z,38.60
2022-12-11T16:49:37.599Z,36.47
2022-12-11T16:52:04.513Z,41.23
2022-12-11T16:54:31.188Z,42.17
2022-12-11T16:56:57.821Z,32.87
2022-12-11T16:59:25.145Z,38.27
2022-12-11T17:01:51.800Z,40.13
2022-12-11T17:04:18.449Z,36.10
2022-12-11T17:06:45.594Z,33.47
2022-12-11T17:09:12.330Z,39.10
2022-12-11T17:11:39.359Z,45.67
2022-12-11T17:14:06.003Z,40.23
2022-12-11T17:16:33.408Z,50.70
2022-12-11T17:19:00.353Z,37.10
2022-12-11T17:21:27.957Z,43.90
2022-12-11T17:23:54.702Z,43.87
2022-12-11T17:26:21.375Z,43.93
2022-12-11T17:28:47.960Z,43.00
2022-12-11T17:31:15.957Z,47.23
2022-12-11T17:33:45.762Z,35.40
2022-12-11T17:36:14.074Z,47.97
2022-12-11T17:38:40.858Z,38.43
2022-12-11T17:41:08.560Z,42.00
2022-12-11T17:43:35.322Z,45.90
2022-12-11T17:46:02.584Z,47.93
2022-12-11T17:48:29.650Z,39.47
2022-12-11T17:50:57.606Z,41.00
2022-12-11T17:53:25.637Z,43.30
2022-12-11T17:55:52.436Z,45.87
2022-12-11T17:58:21.429Z,52.00
2022-12-11T18:00:50.278Z,48.23
2022-12-11T18:03:18.068Z,66.70
2022-12-11T18:05:46.901Z,48.47
2022-12-11T18:08:15.013Z,47.57
2022-12-11T18:10:41.987Z,45.80
2022-12-11T18:13:08.963Z,48.70
2022-12-11T18:15:35.990Z,44.50
2022-12-11T18:18:03.069Z,45.43
2022-12-11T18:20:31.591Z,52.20
2022-12-11T18:22:58.410Z,46.00
2022-12-11T18:25:25.991Z,38.27
2022-12-11T18:27:56.676Z,47.80
2022-12-11T18:30:24.414Z,49.97
2022-12-11T18:32:51.772Z,48.87
2022-12-11T18:35:18.964Z,44.37
2022-12-11T18:37:45.574Z,46.47
2022-12-11T18:40:12.405Z,45.87
2022-12-11T18:42:39.671Z,46.70
2022-12-11T18:45:07.335Z,47.77
2022-12-11T18:47:33.983Z,54.00
2022-12-11T18:50:07.124Z,49.83
2022-12-11T18:52:34.247Z,53.63
2022-12-11T18:55:00.887Z,45.90
2022-12-11T18:57:27.629Z,44.23
2022-12-11T18:59:54.956Z,43.23
2022-12-11T19:02:22.409Z,45.40
2022-12-11T19:04:49.160Z,37.87
2022-12-11T19:07:15.725Z,39.20
2022-12-11T19:09:47.593Z,45.37
2022-12-11T19:12:15.182Z,44.60
2022-12-11T19:14:41.884Z,42.13
2022-12-11T19:17:09.294Z,47.23
2022-12-11T19:19:36.284Z,56.40
2022-12-11T19:22:03.428Z,50.77
2022-12-11T19:24:30.506Z,50.43
2022-12-11T19:26:57.629Z,45.10
2022-12-11T19:29:27.400Z,46.37
2022-12-11T19:31:54.934Z,29.50
2022-12-11T19:34:22.894Z,45.43
2022-12-11T19:36:50.109Z,46.13
2022-12-11T19:39:17.844Z,39.77
2022-12-11T19:41:44.676Z,48.53
2022-12-11T19:44:11.548Z,42.87
2022-12-11T19:46:38.895Z,46.50
2022-12-11T19:49:06.291Z,46.63
2022-12-11T19:51:37.629Z,44.97
2022-12-11T19:54:08.374Z,49.47
2022-12-11T19:56:36.054Z,42.77
2022-12-11T19:59:04.426Z,42.00
2022-12-11T20:01:33.646Z,49.53
2022-12-11T20:04:03.153Z,47.00
2022-12-11T20:06:31.898Z,42.17
2022-12-11T20:08:59.801Z,42.70
2022-12-11T20:11:26.852Z,45.07
2022-12-11T20:13:54.929Z,46.03
2022-12-11T20:16:39.083Z,49.80
2022-12-11T20:19:08.861Z,42.87
2022-12-11T20:21:36.244Z,46.57
2022-12-11T20:24:04.242Z,43.77
2022-12-11T20:26:31.963Z,47.20
2022-12-11T20:28:58.941Z,44.70
2022-12-11T20:31:26.154Z,41.07
2022-12-11T20:33:55.479Z,44.07
2022-12-11T20:36:23.798Z,47.07
2022-12-11T20:38:50.911Z,41.10
2022-12-11T20:41:21.230Z,48.77
2022-12-11T20:43:48.678Z,45.33
2022-12-11T20:46:17.366Z,44.97
2022-12-11T20:48:45.286Z,46.70
2022-12-11T20:51:14.380Z,46.97
2022-12-11T20:53:42.083Z,48.67
2022-12-11T20:56:10.414Z,50.20
2022-12-11T20:58:38.452Z,44.23
2022-12-11T21:01:05.757Z,43.40
2022-12-11T21:03:38.923Z,53.30
2022-12-11T21:06:09.547Z,47.77
2022-12-11T21:08:36.386Z,48.60
2022-12-11T21:11:05.992Z,43.03
2022-12-11T21:13:33.323Z,55.50
2022-12-11T21:16:05.553Z,56.47
2022-12-11T21:18:32.258Z,50.27
2022-12-11T21:20:59.380Z,52.00
2022-12-11T21:23:26.346Z,53.93
2022-12-11T21:25:53.597Z,64.27
2022-12-11T21:28:22.563Z,57.43
2022-12-11T21:30:49.429Z,57.17
2022-12-11T21:33:17.254Z,58.20
2022-12-11T21:35:44.033Z,54.17
2022-12-11T21:38:10.663Z,47.07
2022-12-11T21:40:37.390Z,56.93
2022-12-11T21:43:04.331Z,49.57
2022-12-11T21:48:23.747Z,56.53
2022-12-11T21:50:51.528Z,57.23
2022-12-11T21:53:18.461Z,49.27
2022-12-11T21:55:45.518Z,52.03
2022-12-11T21:58:17.520Z,58.07
2022-12-11T22:00:46.016Z,55.10
2022-12-11T22:03:12.698Z,49.47
2022-12-11T22:05:40.072Z,56.23
2022-12-11T22:08:07.459Z,55.53
2022-12-11T22:10:35.179Z,55.37
2022-12-11T22:13:01.808Z,61.37
2022-12-11T22:15:28.759Z,54.40
2022-12-11T22:17:55.448Z,64.50
2022-12-11T22:20:22.111Z,66.77
2022-12-11T22:22:49.380Z,64.43
2022-12-11T22:25:17.528Z,60.40
2022-12-11T22:27:44.219Z,55.50
2022-12-11T22:30:13.815Z,59.30
2022-12-11T22:32:40.817Z,62.63
2022-12-11T22:35:08.099Z,55.57
2022-12-11T22:37:34.754Z,59.10
2022-12-11T22:40:02.228Z,59.90
2022-12-11T22:42:28.884Z,57.23
2022-12-11T22:44:55.694Z,64.03
2022-12-11T22:47:23.643Z,61.33
2022-12-11T22:49:50.286Z,58.37
2022-12-11T22:52:21.299Z,57.17
2022-12-11T22:54:48.076Z,59.57
2022-12-11T22:57:15.562Z,61.50
2022-12-11T22:59:42.389Z,62.13
2022-12-11T23:02:09.253Z,62.93
2022-12-11T23:04:36.623Z,50.13
2022-12-11T23:07:04.004Z,51.67
2022-12-11T23:09:30.877Z,56.40
2022-12-11T23:11:58.093Z,64.57
2022-12-11T23:14:25.696Z,62.17
2022-12-11T23:16:53.112Z,54.80
2022-12-11T23:19:32.345Z,59.03
2022-12-11T23:21:59.823Z,54.40
2022-12-11T23:24:26.993Z,58.93
2022-12-11T23:26:54.380Z,62.60
2022-12-11T23:29:21.456Z,55.13
2022-12-11T23:31:48.810Z,56.33
2022-12-11T23:34:15.693Z,58.70
2022-12-11T23:36:42.409Z,55.63
2022-12-11T23:39:09.598Z,57.63
2022-12-11T23:41:36.722Z,60.83
2022-12-11T23:44:03.603Z,52.17
2022-12-11T23:46:30.345Z,52.73
2022-12-11T23:48:57.853Z,62.20
2022-12-11T23:51:25.656Z,62.27
2022-12-11T23:53:52.852Z,61.87
2022-12-11T23:56:21.663Z,53.37
2022-12-11T23:58:48.639Z,56.30
